Flight Track Log - Related Links

Times and Time Zones

All times are in EDT time to prevent confusion due to time zone crossing. See the UAL4335 flight status page for this flight to view local times or setup timezone preferences in your user account.

Time Position Orientation Groundspeed Altitude Reporting Facility
EDT Latitude Longitude Course Direction KTS MPH feet Rate Location/Type
Wed 03:22:25 PM 40.6333 -74.2000 270° West 205 236 2,100  Level New York TRACON
Wed 03:23:25 PM 40.6333 -74.2833 270° West 251 289 5,200 3,100 Climbing New York TRACON
Wed 03:24:00 PM 40.6833 -74.4927 270° West  Level FlightAware Approximate
Wed 03:24:25 PM 40.6333 -74.3667 270° West 242 278 8,300  Level New York TRACON
Wed 03:25:00 PM 40.6834 -74.6014 270° West  Level FlightAware Approximate
Wed 03:25:25 PM 40.6333 -74.4500 270° West 269 310 10,900  Level New York TRACON
Wed 03:26:00 PM 40.6833 -74.7101 270° West  Level FlightAware Approximate
Wed 03:27:00 PM 40.6834 -74.8188 270° West  Level FlightAware Approximate
Wed 03:27:04 PM 40.7389 -74.5450 326° Northwest 290 334 14,000  Level New York Center
Wed 03:28:05 PM 40.7817 -74.6406 301° West 272 313 15,700 1,513 Climbing New York Center
Wed 03:29:03 PM 40.7847 -74.7314 273° West 272 313 17,000 661 Climbing New York Center
Wed 03:30:03 PM 40.7539 -74.8419 250° West 284 327 17,000  Level New York Center
Wed 03:31:04 PM 40.7233 -74.9442 249° West 306 352 17,000 496 Level New York Center
Wed 03:32:04 PM 40.6878 -75.0622 248° West 332 382 18,000 1,100 Climbing New York Center
Wed 03:33:04 PM 40.6444 -75.1636 241° Southwest 351 404 19,200 1,240 Climbing New York Center
Wed 03:34:05 PM 40.5944 -75.2778 240° Southwest 356 410 20,500 1,361 Climbing New York Center
Wed 03:35:03 PM 40.5419 -75.3892 238° Southwest 363 418 21,900 1,361 Climbing New York Center
Wed 03:36:04 PM 40.4872 -75.5083 239° Southwest 374 430 23,200 1,300 Climbing New York Center
Wed 03:37:03 PM 40.4347 -75.6247 239° Southwest 374 430 24,500 1,200 Climbing New York Center
Wed 03:38:04 PM 40.3797 -75.7433 239° Southwest 374 430 25,600 967 Climbing New York Center
Wed 03:40:03 PM 40.2675 -75.9775 238° Southwest 395 455 27,400 767 Climbing New York Center
Wed 03:41:04 PM 40.2008 -76.1192 238° Southwest 395 455 27,900 298 Climbing New York Center
Wed 03:42:04 PM 40.1517 -76.2322 240° Southwest 395 455 28,000 650 Climbing New York Center
Wed 03:43:04 PM 40.0897 -76.3550 237° Southwest 401 461 29,200 1,488 Climbing New York Center
Wed 03:44:05 PM 40.0342 -76.4725 238° Southwest 395 455 31,000 1,388 Climbing New York Center
Wed 03:45:05 PM 39.9803 -76.5900 239° Southwest 389 448 32,000 508 Climbing New York Center
Wed 03:46:03 PM 39.9244 -76.7100 239° Southwest 389 448 32,000  Level New York Center
Wed 03:47:05 PM 39.8703 -76.8297 240° Southwest 389 448 32,000  Level New York Center
Wed 03:47:55 PM 39.8144 -76.9422 237° Southwest 388 447 32,000  Level Washington Center
Wed 03:48:55 PM 39.7567 -77.0653 239° Southwest 388 447 32,000  Level Washington Center
Wed 03:49:55 PM 39.7011 -77.1853 239° Southwest 388 447 32,000  Level Washington Center
Wed 03:50:55 PM 39.6561 -77.2789 238° Southwest 388 447 32,000  Level Washington Center
Wed 03:51:55 PM 39.5894 -77.4228 239° Southwest 388 447 32,000  Level Washington Center
Wed 03:52:55 PM 39.5292 -77.5422 237° Southwest 388 447 32,000  Level Washington Center
Wed 03:53:55 PM 39.4750 -77.6617 240° Southwest 388 447 32,000  Level Washington Center
Wed 03:54:55 PM 39.4275 -77.7572 237° Southwest 393 452 32,000  Level Washington Center
Wed 03:55:56 PM 39.3622 -77.9028 240° Southwest 393 452 32,000  Level Washington Center
Wed 03:56:55 PM 39.3119 -78.0300 243° Southwest 393 452 32,000  Level Washington Center
Wed 03:57:55 PM 39.2633 -78.1542 243° Southwest 393 452 32,000  Level Washington Center
Wed 03:58:55 PM 39.2128 -78.2811 243° Southwest 393 452 32,000  Level Washington Center
Wed 03:59:55 PM 39.1683 -78.3947 243° Southwest 399 459 32,000  Level Washington Center
Wed 04:00:55 PM 39.1175 -78.5183 242° Southwest 399 459 32,000  Level Washington Center
Wed 04:01:55 PM 39.0686 -78.6422 243° Southwest 399 459 32,000  Level Washington Center
Wed 04:02:55 PM 39.0194 -78.7656 243° Southwest 399 459 32,000  Level Washington Center
Wed 04:03:55 PM 38.9683 -78.8889 242° Southwest 399 459 32,000  Level Washington Center
Wed 04:04:55 PM 38.9192 -79.0094 242° Southwest 399 459 32,000  Level Washington Center
Wed 04:06:00 PM 38.8627 -79.1239 238° Southwest  Level FlightAware Approximate
Wed 04:06:33 PM 38.8411 -79.2181 238° Southwest 384 442 32,000  Level Indianapolis Center
Wed 04:06:55 PM 38.8428 -79.2644 273° West 399 459 32,000  Level Washington Center
Wed 04:07:55 PM 38.8406 -79.4056 269° West 391 450 32,000  Level Washington Center
Wed 04:08:55 PM 38.8381 -79.5467 269° West 396 456 32,000  Level Washington Center
Wed 04:09:55 PM 38.8331 -79.6906 267° West 401 461 32,000  Level Washington Center
Wed 04:10:55 PM 38.8303 -79.8314 269° West 401 461 32,000  Level Washington Center
Wed 04:11:55 PM 38.8247 -79.9858 267° West 401 461 32,000  Level Washington Center
Wed 04:12:55 PM 38.8217 -80.1269 268° West 401 461 32,000  Level Washington Center
Wed 04:13:48 PM 38.8169 -80.2236 266° West 394 453 32,000  Level Indianapolis Center
Wed 04:14:50 PM 38.8125 -80.3581 268° West 382 440 32,000  Level Indianapolis Center
Wed 04:15:52 PM 38.8089 -80.5189 268° West 377 434 32,000  Level Indianapolis Center
Wed 04:16:54 PM 38.8044 -80.6533 268° West 378 435 32,000  Level Indianapolis Center
Wed 04:17:56 PM 38.8003 -80.7836 268° West 371 427 32,000  Level Indianapolis Center
Wed 04:18:58 PM 38.7964 -80.9150 268° West 370 426 32,000  Level Indianapolis Center
Wed 04:20:00 PM 38.7914 -81.0450 267° West 367 422 32,000  Level Indianapolis Center
Wed 04:21:02 PM 38.7875 -81.1744 268° West 365 420 32,000 -48 Level Indianapolis Center
Wed 04:22:04 PM 38.7825 -81.3300 268° West 367 422 31,900 -677 Descending Indianapolis Center
Wed 04:23:06 PM 38.7772 -81.4683 267° West 371 427 30,600 -1,113 Descending Indianapolis Center
Wed 04:24:08 PM 38.7717 -81.6022 267° West 366 421 29,600 -919 Descending Indianapolis Center
Wed 04:25:10 PM 38.7675 -81.7125 267° West 365 420 28,700 -1,056 Descending Indianapolis Center
Wed 04:26:13 PM 38.7617 -81.8689 267° West 368 423 27,400 -1,152 Descending Indianapolis Center
Wed 04:27:15 PM 38.7558 -81.9989 267° West 368 423 26,300 -1,016 Descending Indianapolis Center
Wed 04:28:17 PM 38.7281 -82.1244 254° West 367 422 25,300 -1,016 Descending Indianapolis Center
Wed 04:29:19 PM 38.6956 -82.2469 251° West 366 421 24,200 -629 Descending Indianapolis Center
Wed 04:30:21 PM 38.6642 -82.3661 251° West 357 411 24,000 -97 Descending Indianapolis Center
Wed 04:31:23 PM 38.6289 -82.4975 251° West 350 403 24,000 -435 Level Indianapolis Center
Wed 04:32:25 PM 38.5986 -82.6147 252° West 348 400 23,100 -919 Descending Indianapolis Center
Wed 04:33:27 PM 38.5953 -82.7322 268° West 332 382 22,100 -532 Descending Indianapolis Center
Wed 04:34:29 PM 38.5989 -82.8714 272° West 334 384 22,000 -48 Descending Indianapolis Center
Wed 04:35:31 PM 38.6006 -82.9900 271° West 336 387 22,000 -435 Level Indianapolis Center
Wed 04:36:33 PM 38.6031 -83.1111 272° West 340 391 21,100 -1,452 Descending Indianapolis Center
Wed 04:37:35 PM 38.6042 -83.2264 271° West 328 377 19,000 -2,274 Descending Indianapolis Center
Wed 04:38:37 PM 38.6067 -83.3628 271° West 330 380 16,400 -2,323 Descending Indianapolis Center
Wed 04:39:39 PM 38.6083 -83.4764 271° West 324 373 14,200 -1,984 Descending Indianapolis Center
Wed 04:40:41 PM 38.6106 -83.5797 272° West 301 346 12,300 -1,548 Descending Indianapolis Center
Wed 04:41:43 PM 38.6114 -83.6825 271° West 290 334 11,000 -1,113 Descending Indianapolis Center
Wed 04:42:45 PM 38.6125 -83.7886 271° West 298 343 10,000 -484 Descending Indianapolis Center
Wed 04:43:47 PM 38.6144 -83.9142 271° West 303 349 10,000 -48 Level Indianapolis Center
Wed 04:44:50 PM 38.6539 -83.9997 301° West 319 367 9,900 -288 Descending Indianapolis Center
Wed 04:45:52 PM 38.6964 -84.0822 303° West 279 321 9,400 -484 Descending Indianapolis Center
Wed 04:46:54 PM 38.7414 -84.1692 304° West 252 290 8,900 -780 Descending Indianapolis Center
Wed 04:47:55 PM 38.7761 -84.2397 302° West 236 272 7,800 -1,171 Descending Indianapolis Center
Wed 04:48:57 PM 38.8064 -84.3133 298° West 231 266 6,500 -1,403 Descending Indianapolis Center
Wed 04:49:59 PM 38.8678 -84.3550 332° Northwest 259 298 4,900 -738 Descending Indianapolis Center
Wed 04:50:59 PM 38.9333 -84.3833 341° North 233 268 5,000 -50 Climbing Cincinnati TRACON
Wed 04:51:59 PM 38.9833 -84.4167 333° Northwest 180 207 4,800 -550 Descending Cincinnati TRACON
Wed 04:52:59 PM 39.0333 -84.4333 345° North 197 227 3,900 -800 Descending Cincinnati TRACON
Wed 04:53:59 PM 39.0500 -84.5000 288° West 182 209 3,200 -700 Descending Cincinnati TRACON

Login

Don't have an account? Register now (free) for customized features, flight alerts, and more!